createdAt,value
2018-06-21T00:00:21.619Z,18.44
2018-06-21T00:01:21.610Z,18.42
2018-06-21T00:02:21.617Z,18.37
2018-06-21T00:03:21.619Z,18.31
2018-06-21T00:04:21.626Z,18.37
2018-06-21T00:05:21.628Z,18.37
2018-06-21T00:06:21.632Z,18.37
2018-06-21T00:07:21.636Z,18.40
2018-06-21T00:08:21.642Z,18.49
2018-06-21T00:09:21.658Z,18.42
2018-06-21T00:10:21.644Z,18.43
2018-06-21T00:11:21.646Z,18.50
2018-06-21T00:12:21.654Z,18.47
2018-06-21T00:13:21.662Z,18.37
2018-06-21T00:14:21.662Z,18.39
2018-06-21T00:15:21.671Z,18.43
2018-06-21T00:16:21.670Z,18.42
2018-06-21T00:17:21.672Z,18.42
2018-06-21T00:18:21.676Z,18.36
2018-06-21T00:19:21.677Z,18.37
2018-06-21T00:20:21.707Z,18.36
2018-06-21T00:21:21.691Z,18.28
2018-06-21T00:22:21.692Z,18.36
2018-06-21T00:23:21.694Z,18.27
2018-06-21T00:24:21.706Z,18.15
2018-06-21T00:25:21.703Z,18.17
2018-06-21T00:26:21.706Z,18.02
2018-06-21T00:27:21.710Z,17.94
2018-06-21T00:28:21.713Z,17.88
2018-06-21T00:29:21.735Z,17.99
2018-06-21T00:30:21.723Z,17.87
2018-06-21T00:31:21.726Z,17.88
2018-06-21T00:32:21.728Z,17.82
2018-06-21T00:33:21.732Z,17.76
2018-06-21T00:34:21.735Z,17.78
2018-06-21T00:35:21.738Z,17.71
2018-06-21T00:36:21.739Z,17.64
2018-06-21T00:37:21.744Z,17.70
2018-06-21T00:38:21.753Z,17.70
2018-06-21T00:39:21.750Z,17.66
2018-06-21T00:40:21.759Z,17.57
2018-06-21T00:41:21.755Z,17.59
2018-06-21T00:42:21.762Z,17.59
2018-06-21T00:43:21.768Z,17.62
2018-06-21T00:44:21.771Z,17.64
2018-06-21T00:45:21.774Z,17.64
2018-06-21T00:46:21.789Z,17.57
2018-06-21T00:47:21.785Z,17.55
2018-06-21T00:48:21.783Z,17.54
2018-06-21T00:49:21.787Z,17.43
2018-06-21T00:50:21.793Z,17.47
2018-06-21T00:51:21.796Z,17.38
2018-06-21T00:52:21.806Z,17.33
2018-06-21T00:53:21.802Z,17.32
2018-06-21T00:54:21.804Z,17.36
2018-06-21T00:55:21.807Z,17.28
2018-06-21T00:56:21.811Z,17.28
2018-06-21T00:57:21.820Z,17.22
2018-06-21T00:58:21.836Z,17.29
2018-06-21T00:59:21.822Z,17.10
2018-06-21T01:00:21.826Z,17.08
2018-06-21T01:01:21.829Z,17.13
2018-06-21T01:02:21.831Z,17.04
2018-06-21T01:03:21.835Z,17.08
2018-06-21T01:04:21.836Z,17.00
2018-06-21T01:05:21.841Z,17.03
2018-06-21T01:06:21.845Z,17.03
2018-06-21T01:07:21.849Z,16.95
2018-06-21T01:08:21.865Z,16.99
2018-06-21T01:09:21.857Z,16.96
2018-06-21T01:10:21.862Z,16.88
2018-06-21T01:11:21.862Z,16.86
2018-06-21T01:12:21.869Z,16.85
2018-06-21T01:13:21.868Z,16.85
2018-06-21T01:14:21.872Z,16.75
2018-06-21T01:15:21.875Z,16.80
2018-06-21T01:16:21.886Z,16.78
2018-06-21T01:17:21.879Z,16.80
2018-06-21T01:18:21.911Z,16.83
2018-06-21T01:19:21.892Z,16.83
2018-06-21T01:20:21.888Z,16.81
2018-06-21T01:21:21.892Z,16.74
2018-06-21T01:22:21.895Z,16.77
2018-06-21T01:23:21.900Z,16.73
2018-06-21T01:24:21.902Z,16.80
2018-06-21T01:25:21.963Z,16.83
2018-06-21T01:26:21.920Z,16.74
2018-06-21T01:27:21.909Z,16.80
2018-06-21T01:28:21.930Z,16.67
2018-06-21T01:29:21.925Z,16.75
2018-06-21T01:30:21.918Z,16.75
2018-06-21T01:31:21.924Z,16.78
2018-06-21T01:32:21.925Z,16.80
2018-06-21T01:33:21.929Z,16.67
2018-06-21T01:34:21.933Z,16.70
2018-06-21T01:35:21.934Z,16.75
2018-06-21T01:36:21.939Z,16.73
2018-06-21T01:37:21.941Z,16.73
2018-06-21T01:38:21.947Z,16.63
2018-06-21T01:39:21.949Z,16.70
2018-06-21T01:40:21.951Z,16.71
2018-06-21T01:41:21.953Z,16.75
2018-06-21T01:42:21.955Z,16.75
2018-06-21T01:43:21.956Z,16.68
2018-06-21T01:44:21.963Z,16.62
2018-06-21T01:45:21.963Z,16.55
2018-06-21T01:46:21.964Z,16.58
2018-06-21T01:47:21.972Z,16.63
2018-06-21T01:48:21.977Z,16.63
2018-06-21T01:49:21.975Z,16.55
2018-06-21T01:50:21.979Z,16.59
2018-06-21T01:51:21.979Z,16.49
2018-06-21T01:52:21.983Z,16.49
2018-06-21T01:53:21.988Z,16.55
2018-06-21T01:54:21.990Z,16.55
2018-06-21T01:55:21.992Z,16.62
2018-06-21T01:56:22.025Z,16.59
2018-06-21T01:57:22.017Z,16.55
2018-06-21T01:58:22.004Z,16.49
2018-06-21T01:59:22.006Z,16.52
2018-06-21T02:00:22.007Z,16.49
2018-06-21T02:01:22.012Z,16.49
2018-06-21T02:02:22.017Z,16.49
2018-06-21T02:03:22.016Z,16.48
2018-06-21T02:04:22.024Z,16.52
2018-06-21T02:05:22.024Z,16.49
2018-06-21T02:06:22.026Z,16.49
2018-06-21T02:07:22.040Z,16.45
2018-06-21T02:08:22.030Z,16.41
2018-06-21T02:09:22.041Z,16.49
2018-06-21T02:10:22.034Z,16.34
2018-06-21T02:11:22.039Z,16.41
2018-06-21T02:12:22.042Z,16.38
2018-06-21T02:13:22.043Z,16.38
2018-06-21T02:14:22.047Z,16.38
2018-06-21T02:15:22.050Z,16.41
2018-06-21T02:16:22.050Z,16.42
2018-06-21T02:17:22.075Z,16.41
2018-06-21T02:18:22.059Z,16.37
2018-06-21T02:19:22.061Z,16.38
2018-06-21T02:20:22.081Z,16.40
2018-06-21T02:21:22.066Z,16.49
2018-06-21T02:22:22.089Z,16.48
2018-06-21T02:23:22.069Z,16.49
2018-06-21T02:24:22.070Z,16.45
2018-06-21T02:25:22.076Z,16.55
2018-06-21T02:26:22.111Z,16.48
2018-06-21T02:27:22.087Z,16.49
2018-06-21T02:28:22.099Z,16.50
2018-06-21T02:29:22.088Z,16.45
2018-06-21T02:30:22.098Z,16.44
2018-06-21T02:31:22.095Z,16.31
2018-06-21T02:32:22.094Z,16.23
2018-06-21T02:33:23.672Z,16.27
2018-06-21T02:34:22.165Z,16.27
2018-06-21T02:35:22.109Z,16.25
2018-06-21T02:36:22.116Z,16.25
2018-06-21T02:37:22.108Z,16.20
2018-06-21T02:38:22.117Z,16.31
2018-06-21T02:39:22.122Z,16.37
2018-06-21T02:40:22.118Z,16.42
2018-06-21T02:41:22.124Z,16.49
2018-06-21T02:42:22.130Z,16.48
2018-06-21T02:43:22.128Z,16.50
2018-06-21T02:44:22.133Z,16.55
2018-06-21T02:45:22.152Z,16.53
2018-06-21T02:46:22.170Z,16.62
2018-06-21T02:47:22.136Z,16.60
2018-06-21T02:48:22.142Z,16.53
2018-06-21T02:49:22.142Z,16.56
2018-06-21T02:50:22.152Z,16.68
2018-06-21T02:51:22.145Z,16.62
2018-06-21T02:52:22.150Z,16.67
2018-06-21T02:53:22.153Z,16.63
2018-06-21T02:54:22.154Z,16.60
2018-06-21T02:55:22.157Z,16.71
2018-06-21T02:56:22.161Z,16.68
2018-06-21T02:57:22.162Z,16.67
2018-06-21T02:58:22.165Z,16.78
2018-06-21T02:59:22.168Z,16.78
2018-06-21T03:00:22.170Z,16.85
2018-06-21T03:01:22.173Z,16.70
2018-06-21T03:02:22.174Z,16.75
2018-06-21T03:03:22.176Z,16.74
2018-06-21T03:04:22.181Z,16.80
2018-06-21T03:05:22.193Z,16.83
2018-06-21T03:06:22.207Z,16.81
2018-06-21T03:07:22.187Z,16.93
2018-06-21T03:08:22.193Z,16.83
2018-06-21T03:09:22.194Z,16.92
2018-06-21T03:10:22.217Z,16.92
2018-06-21T03:11:22.230Z,16.96
2018-06-21T03:12:22.201Z,16.95
2018-06-21T03:13:22.211Z,16.92
2018-06-21T03:14:22.208Z,16.99
2018-06-21T03:15:22.228Z,16.95
2018-06-21T03:16:22.222Z,16.92
2018-06-21T03:17:22.221Z,16.92
2018-06-21T03:18:22.257Z,16.95
2018-06-21T03:19:22.221Z,16.92
2018-06-21T03:20:22.224Z,16.99
2018-06-21T03:21:22.230Z,16.93
2018-06-21T03:22:22.228Z,16.95
2018-06-21T03:23:22.237Z,16.99
2018-06-21T03:24:22.236Z,17.00
2018-06-21T03:25:22.263Z,16.95
2018-06-21T03:26:22.241Z,16.93
2018-06-21T03:27:22.243Z,16.95
2018-06-21T03:28:22.250Z,17.00
2018-06-21T03:29:22.250Z,17.03
2018-06-21T03:30:22.255Z,17.06
2018-06-21T03:31:22.254Z,17.04
2018-06-21T03:32:22.259Z,17.07
2018-06-21T03:33:22.267Z,17.10
2018-06-21T03:34:22.261Z,17.11
2018-06-21T03:35:22.270Z,17.15
2018-06-21T03:36:22.269Z,17.11
2018-06-21T03:37:22.281Z,17.14
2018-06-21T03:38:22.277Z,17.11
2018-06-21T03:39:22.279Z,17.11
2018-06-21T03:40:22.281Z,17.23
2018-06-21T03:41:22.284Z,17.17
2018-06-21T03:42:22.292Z,17.08
2018-06-21T03:43:22.288Z,17.14
2018-06-21T03:44:22.302Z,17.20
2018-06-21T03:45:22.294Z,17.20
2018-06-21T03:46:22.300Z,17.25
2018-06-21T03:47:22.305Z,17.23
2018-06-21T03:48:22.303Z,17.32
2018-06-21T03:49:22.316Z,17.25
2018-06-21T03:50:22.310Z,17.25
2018-06-21T03:51:22.313Z,17.23
2018-06-21T03:52:22.370Z,17.23
2018-06-21T03:53:22.318Z,17.26
2018-06-21T03:54:22.322Z,17.32
2018-06-21T03:55:22.324Z,17.29
2018-06-21T03:56:22.330Z,17.33
2018-06-21T03:57:22.333Z,17.35
2018-06-21T03:58:22.336Z,17.40
2018-06-21T03:59:22.333Z,17.46
2018-06-21T04:00:22.364Z,17.59
2018-06-21T04:01:22.347Z,17.64
2018-06-21T04:02:22.365Z,17.57
2018-06-21T04:03:22.351Z,17.64
2018-06-21T04:04:22.352Z,17.79
2018-06-21T04:05:22.410Z,17.82
2018-06-21T04:06:22.362Z,17.91
2018-06-21T04:07:22.360Z,17.92
2018-06-21T04:08:22.377Z,17.97
2018-06-21T04:09:22.374Z,18.07
2018-06-21T04:10:22.380Z,18.07
2018-06-21T04:11:22.401Z,18.31
2018-06-21T04:12:22.376Z,18.36
2018-06-21T04:13:22.393Z,18.49
2018-06-21T04:14:22.382Z,18.67
2018-06-21T04:15:22.415Z,18.94
2018-06-21T04:16:22.414Z,19.17
2018-06-21T04:17:22.699Z,19.25
2018-06-21T04:18:22.407Z,19.35
2018-06-21T04:19:22.397Z,19.48
2018-06-21T04:20:22.403Z,19.58
2018-06-21T04:21:22.403Z,19.68
2018-06-21T04:22:22.411Z,19.65
2018-06-21T04:23:22.444Z,19.68
2018-06-21T04:24:22.437Z,19.63
2018-06-21T04:25:22.429Z,19.63
2018-06-21T04:26:22.453Z,19.70
2018-06-21T04:27:22.436Z,19.70
2018-06-21T04:28:22.429Z,19.76
2018-06-21T04:29:22.436Z,19.83
2018-06-21T04:30:22.509Z,19.72
2018-06-21T04:31:22.441Z,19.70
2018-06-21T04:32:22.510Z,19.75
2018-06-21T04:33:22.469Z,19.79
2018-06-21T04:34:22.456Z,19.75
2018-06-21T04:35:22.459Z,19.76
2018-06-21T04:36:23.206Z,19.78
2018-06-21T04:37:22.465Z,19.73
2018-06-21T04:38:22.470Z,19.75
2018-06-21T04:39:22.477Z,19.83
2018-06-21T04:40:22.479Z,19.83
2018-06-21T04:41:22.487Z,19.86
2018-06-21T04:42:22.485Z,19.84
2018-06-21T04:43:22.492Z,19.94
2018-06-21T04:44:22.499Z,19.84
2018-06-21T04:45:22.508Z,20.02
2018-06-21T04:46:22.502Z,20.00
2018-06-21T04:47:22.506Z,19.98
2018-06-21T04:48:22.507Z,20.09
2018-06-21T04:49:22.516Z,20.10
2018-06-21T04:50:22.517Z,20.08
2018-06-21T04:51:22.523Z,20.08
2018-06-21T04:52:22.524Z,20.10
2018-06-21T04:53:22.532Z,20.09
2018-06-21T04:54:22.546Z,20.10
2018-06-21T04:55:22.605Z,20.20
2018-06-21T04:56:22.542Z,20.21
2018-06-21T04:57:22.548Z,20.24
2018-06-21T04:58:22.567Z,20.24
2018-06-21T04:59:22.629Z,20.33
2018-06-21T05:00:22.562Z,20.43
2018-06-21T05:01:22.583Z,20.31
2018-06-21T05:02:22.567Z,20.42
2018-06-21T05:03:22.601Z,20.46
2018-06-21T05:04:22.619Z,20.59
2018-06-21T05:05:22.590Z,20.62
2018-06-21T05:06:22.639Z,20.71
2018-06-21T05:07:22.590Z,20.76
2018-06-21T05:08:22.610Z,20.91
2018-06-21T05:09:22.612Z,20.89
2018-06-21T05:10:22.602Z,21.04
2018-06-21T05:11:22.657Z,21.14
2018-06-21T05:12:22.613Z,21.32
2018-06-21T05:13:22.618Z,21.21
2018-06-21T05:14:22.623Z,21.45
2018-06-21T05:15:22.626Z,21.41
2018-06-21T05:16:22.632Z,21.56
2018-06-21T05:17:24.207Z,21.57
2018-06-21T05:18:22.792Z,21.66
2018-06-21T05:19:22.645Z,21.69
2018-06-21T05:20:22.649Z,21.76
2018-06-21T05:21:22.652Z,21.85
2018-06-21T05:22:22.937Z,21.90
2018-06-21T05:23:22.664Z,21.91
2018-06-21T05:24:22.688Z,21.98
2018-06-21T05:25:22.675Z,22.02
2018-06-21T05:26:22.678Z,22.14
2018-06-21T05:27:22.685Z,22.12
2018-06-21T05:28:22.686Z,22.22
2018-06-21T05:29:22.692Z,22.28
2018-06-21T05:30:22.696Z,22.29
2018-06-21T05:31:22.701Z,22.34
2018-06-21T05:32:22.706Z,22.41
2018-06-21T05:33:22.708Z,22.38
2018-06-21T05:34:22.715Z,22.49
2018-06-21T05:35:22.722Z,22.56
2018-06-21T05:36:22.726Z,22.59
2018-06-21T05:37:22.753Z,22.56
2018-06-21T05:38:22.736Z,22.64
2018-06-21T05:39:22.739Z,22.69
2018-06-21T05:40:22.749Z,22.75
2018-06-21T05:41:22.753Z,22.86
2018-06-21T05:42:22.754Z,22.94
2018-06-21T05:43:22.760Z,22.94
2018-06-21T05:44:22.834Z,22.97
2018-06-21T05:45:22.772Z,23.05
2018-06-21T05:46:22.781Z,23.01
2018-06-21T05:47:22.782Z,22.96
2018-06-21T05:48:22.790Z,22.99
2018-06-21T05:49:22.792Z,22.96
2018-06-21T05:50:22.809Z,23.02
2018-06-21T05:51:24.726Z,23.04
2018-06-21T05:52:22.808Z,23.07
2018-06-21T05:53:22.811Z,23.17
2018-06-21T05:54:22.817Z,23.15
2018-06-21T05:55:22.823Z,23.23
2018-06-21T05:56:22.836Z,23.15
2018-06-21T05:57:22.851Z,23.23
2018-06-21T05:58:22.848Z,23.26
2018-06-21T05:59:22.876Z,23.38
2018-06-21T06:00:22.866Z,23.40
2018-06-21T06:01:22.955Z,23.42
2018-06-21T06:02:22.860Z,23.45
2018-06-21T06:03:22.887Z,23.61
2018-06-21T06:04:22.872Z,23.61
2018-06-21T06:05:22.876Z,23.62
2018-06-21T06:06:22.881Z,23.72
2018-06-21T06:07:22.903Z,23.77
2018-06-21T06:08:23.034Z,23.85
2018-06-21T06:09:22.903Z,23.92
2018-06-21T06:10:22.903Z,23.94
2018-06-21T06:11:23.066Z,24.07
2018-06-21T06:12:22.916Z,24.00
2018-06-21T06:13:22.940Z,24.20
2018-06-21T06:14:22.945Z,24.23
2018-06-21T06:15:22.935Z,24.27
2018-06-21T06:16:22.938Z,24.20
2018-06-21T06:17:22.944Z,24.17
2018-06-21T06:18:22.949Z,24.23
2018-06-21T06:19:22.958Z,24.13
2018-06-21T06:20:22.965Z,24.26
2018-06-21T06:21:22.968Z,24.20
2018-06-21T06:22:22.972Z,24.38
2018-06-21T06:23:22.973Z,24.22
2018-06-21T06:24:22.999Z,24.24
2018-06-21T06:25:22.989Z,24.24
2018-06-21T06:26:22.995Z,24.54
2018-06-21T06:27:23.012Z,24.88
2018-06-21T06:28:23.005Z,25.24
2018-06-21T06:29:23.011Z,25.67
2018-06-21T06:30:23.018Z,26.01
2018-06-21T06:31:23.025Z,26.50
2018-06-21T06:32:23.033Z,26.92
2018-06-21T06:33:23.034Z,27.54
2018-06-21T06:34:23.054Z,27.98
2018-06-21T06:35:23.061Z,28.47
2018-06-21T06:36:23.054Z,29.01
2018-06-21T06:37:23.057Z,29.65
2018-06-21T06:38:23.062Z,29.86
2018-06-21T06:39:23.071Z,30.03
2018-06-21T06:40:23.090Z,29.37
2018-06-21T06:41:23.084Z,29.34
2018-06-21T06:42:23.092Z,28.31
2018-06-21T06:43:23.097Z,28.26
2018-06-21T06:44:23.104Z,28.56
2018-06-21T06:45:23.112Z,28.80
2018-06-21T06:46:23.118Z,28.75
2018-06-21T06:47:23.125Z,28.63
2018-06-21T06:48:23.134Z,28.75
2018-06-21T06:49:23.138Z,28.85
2018-06-21T06:50:23.148Z,29.28
2018-06-21T06:51:23.154Z,29.29
2018-06-21T06:52:23.162Z,28.87
2018-06-21T06:53:23.175Z,28.69
2018-06-21T06:54:23.187Z,28.91
2018-06-21T06:55:23.186Z,28.95
2018-06-21T06:56:23.208Z,28.73
2018-06-21T06:57:23.201Z,28.69
2018-06-21T06:58:23.211Z,28.62
2018-06-21T06:59:23.226Z,28.54
2018-06-21T07:00:23.225Z,28.14
2018-06-21T07:01:23.242Z,28.14
2018-06-21T07:02:23.249Z,27.96
2018-06-21T07:03:23.302Z,27.43
2018-06-21T07:04:23.303Z,27.46
2018-06-21T07:05:23.274Z,27.42
2018-06-21T07:06:23.279Z,27.62
2018-06-21T07:07:23.287Z,27.98
2018-06-21T07:08:23.334Z,28.16
2018-06-21T07:09:23.322Z,27.98
2018-06-21T07:10:23.312Z,28.10
2018-06-21T07:11:23.318Z,28.33
2018-06-21T07:12:23.351Z,28.29
2018-06-21T07:13:23.353Z,28.40
2018-06-21T07:14:23.439Z,28.10
2018-06-21T07:15:23.386Z,28.09
2018-06-21T07:16:23.366Z,28.13
2018-06-21T07:17:23.371Z,27.94
2018-06-21T07:18:23.383Z,28.29
2018-06-21T07:19:23.390Z,28.62
2018-06-21T07:20:23.409Z,28.53
2018-06-21T07:21:23.410Z,28.33
2018-06-21T07:22:23.425Z,28.66
2018-06-21T07:23:23.426Z,28.62
2018-06-21T07:24:23.437Z,28.70
2018-06-21T07:25:23.463Z,28.96
2018-06-21T07:26:23.467Z,28.80
2018-06-21T07:27:23.465Z,28.82
2018-06-21T07:28:23.524Z,28.60
2018-06-21T07:29:23.488Z,28.69
2018-06-21T07:30:23.492Z,28.60
2018-06-21T07:31:23.501Z,28.48
2018-06-21T07:32:23.521Z,28.78
2018-06-21T07:33:23.526Z,28.29
2018-06-21T07:34:23.568Z,27.88
2018-06-21T07:35:23.551Z,28.23
2018-06-21T07:36:23.575Z,28.43
2018-06-21T07:37:23.560Z,28.40
2018-06-21T07:38:23.586Z,27.67
2018-06-21T07:39:23.583Z,27.33
2018-06-21T07:40:23.592Z,26.99
2018-06-21T07:41:23.601Z,26.86
2018-06-21T07:42:23.609Z,26.76
2018-06-21T07:43:23.616Z,26.44
2018-06-21T07:44:23.628Z,26.29
2018-06-21T07:45:23.636Z,26.32
2018-06-21T07:46:23.651Z,26.31
2018-06-21T07:47:23.681Z,26.58
2018-06-21T07:48:23.670Z,26.36
2018-06-21T07:49:23.704Z,26.11
2018-06-21T07:50:23.697Z,25.71
2018-06-21T07:51:23.703Z,25.57
2018-06-21T07:52:23.767Z,25.74
2018-06-21T07:53:23.715Z,25.86
2018-06-21T07:54:23.723Z,25.93
2018-06-21T07:55:23.740Z,25.87
2018-06-21T07:56:23.777Z,26.02
2018-06-21T07:57:23.810Z,26.43
2018-06-21T07:58:23.760Z,26.61
2018-06-21T07:59:23.770Z,26.92
2018-06-21T08:00:23.782Z,26.95
2018-06-21T08:01:23.788Z,26.98
2018-06-21T08:02:23.797Z,26.95
2018-06-21T08:03:23.834Z,26.89
2018-06-21T08:04:23.818Z,26.95
2018-06-21T08:05:23.833Z,27.06
2018-06-21T08:06:23.837Z,27.19
2018-06-21T08:07:23.846Z,27.14
2018-06-21T08:08:23.856Z,26.81
2018-06-21T08:09:23.864Z,26.62
2018-06-21T08:10:23.876Z,26.43
2018-06-21T08:11:23.889Z,26.27
2018-06-21T08:12:23.900Z,26.01
2018-06-21T08:13:24.034Z,25.75
2018-06-21T08:14:23.919Z,25.80
2018-06-21T08:15:23.946Z,25.79
2018-06-21T08:16:23.970Z,26.02
2018-06-21T08:17:23.951Z,26.01
2018-06-21T08:18:23.955Z,26.11
2018-06-21T08:19:23.963Z,25.97
2018-06-21T08:20:24.029Z,25.97
2018-06-21T08:21:24.014Z,25.90
2018-06-21T08:22:23.993Z,25.82
2018-06-21T08:23:24.005Z,25.42
2018-06-21T08:24:24.011Z,25.22
2018-06-21T08:25:24.025Z,24.87
2018-06-21T08:26:24.031Z,24.83
2018-06-21T08:27:24.058Z,24.57
2018-06-21T08:28:24.047Z,24.56
2018-06-21T08:29:24.058Z,24.53
2018-06-21T08:30:24.064Z,24.60
2018-06-21T08:31:24.070Z,24.68
2018-06-21T08:32:24.079Z,24.77
2018-06-21T08:33:24.094Z,24.80
2018-06-21T08:34:24.099Z,24.61
2018-06-21T08:35:24.105Z,24.61
2018-06-21T08:36:24.116Z,24.59
2018-06-21T08:37:24.120Z,24.50
2018-06-21T08:38:24.150Z,24.56
2018-06-21T08:39:24.137Z,24.53
2018-06-21T08:40:24.144Z,24.44
2018-06-21T08:41:24.151Z,24.44
2018-06-21T08:42:24.180Z,24.56
2018-06-21T08:43:24.169Z,24.60
2018-06-21T08:44:24.179Z,24.69
2018-06-21T08:45:24.203Z,24.68
2018-06-21T08:46:24.190Z,24.63
2018-06-21T08:47:24.197Z,24.61
2018-06-21T08:48:24.201Z,24.50
2018-06-21T08:49:24.215Z,24.59
2018-06-21T08:50:24.240Z,24.82
2018-06-21T08:51:24.223Z,24.83
2018-06-21T08:52:24.236Z,25.15
2018-06-21T08:53:24.242Z,25.25
2018-06-21T08:54:24.283Z,25.54
2018-06-21T08:55:24.254Z,25.77
2018-06-21T08:56:24.264Z,25.89
2018-06-21T08:57:24.273Z,25.82
2018-06-21T08:58:24.343Z,26.08
2018-06-21T08:59:24.288Z,26.24
2018-06-21T09:00:24.314Z,26.27
2018-06-21T09:01:24.333Z,26.25
2018-06-21T09:02:24.314Z,26.28
2018-06-21T09:03:24.320Z,26.11
2018-06-21T09:04:24.329Z,26.09
2018-06-21T09:05:24.337Z,26.21
2018-06-21T09:06:24.344Z,26.32
2018-06-21T09:07:24.354Z,26.32
2018-06-21T09:08:24.361Z,26.08
2018-06-21T09:09:24.368Z,26.09
2018-06-21T09:10:27.277Z,25.75
2018-06-21T09:11:24.385Z,25.64
2018-06-21T09:12:24.396Z,25.47
2018-06-21T09:13:24.397Z,25.22
2018-06-21T09:14:24.439Z,25.05
2018-06-21T09:15:24.422Z,24.98
2018-06-21T09:16:24.422Z,24.95
2018-06-21T09:17:24.435Z,25.19
2018-06-21T09:18:24.439Z,25.42
2018-06-21T09:19:24.464Z,25.67
2018-06-21T09:20:24.451Z,25.93
2018-06-21T09:21:27.280Z,26.11
2018-06-21T09:22:24.464Z,26.20
2018-06-21T09:23:24.474Z,26.01
2018-06-21T09:24:24.486Z,25.77
2018-06-21T09:25:24.489Z,25.69
2018-06-21T09:26:24.495Z,25.68
2018-06-21T09:27:24.507Z,25.82
2018-06-21T09:28:24.508Z,25.89
2018-06-21T09:29:24.514Z,26.08
2018-06-21T09:30:24.525Z,26.24
2018-06-21T09:31:24.533Z,26.50
2018-06-21T09:32:24.551Z,26.57
2018-06-21T09:33:24.567Z,26.59
2018-06-21T09:34:24.552Z,26.39
2018-06-21T09:35:26.296Z,26.29
2018-06-21T09:36:24.579Z,26.17
2018-06-21T09:37:24.574Z,26.37
2018-06-21T09:38:24.613Z,26.32
2018-06-21T09:39:24.593Z,26.42
2018-06-21T09:40:24.600Z,26.39
2018-06-21T09:41:24.608Z,26.27
2018-06-21T09:42:24.621Z,26.20
2018-06-21T09:43:24.621Z,26.35
2018-06-21T09:44:24.653Z,26.47
2018-06-21T09:45:24.660Z,26.59
2018-06-21T09:46:33.876Z,26.73
2018-06-21T09:47:24.651Z,26.74
2018-06-21T09:48:24.660Z,26.76
2018-06-21T09:49:24.668Z,26.83
2018-06-21T09:50:24.699Z,26.76
2018-06-21T09:51:24.680Z,26.83
2018-06-21T09:52:24.720Z,26.89
2018-06-21T09:53:24.694Z,26.80
2018-06-21T09:54:24.699Z,26.61
2018-06-21T09:55:24.732Z,26.58
2018-06-21T09:56:24.742Z,26.50
2018-06-21T09:57:24.750Z,26.31
2018-06-21T09:58:24.730Z,26.06
2018-06-21T09:59:24.743Z,25.99
2018-06-21T10:00:24.773Z,25.79
2018-06-21T10:01:24.750Z,25.61
2018-06-21T10:02:24.760Z,25.68
2018-06-21T10:03:24.763Z,25.91
2018-06-21T10:04:24.808Z,25.90
2018-06-21T10:05:24.781Z,26.18
2018-06-21T10:06:24.789Z,26.39
2018-06-21T10:07:24.836Z,26.69
2018-06-21T10:08:24.804Z,26.92
2018-06-21T10:09:24.815Z,27.01
2018-06-21T10:10:24.841Z,27.06
2018-06-21T10:11:24.827Z,27.11
2018-06-21T10:12:24.888Z,27.29
2018-06-21T10:13:24.842Z,27.21
2018-06-21T10:14:24.848Z,27.20
2018-06-21T10:15:24.854Z,27.17
2018-06-21T10:16:24.863Z,27.16
2018-06-21T10:17:24.871Z,27.11
2018-06-21T10:18:24.876Z,27.13
2018-06-21T10:19:24.905Z,27.09
2018-06-21T10:20:24.903Z,27.11
2018-06-21T10:21:24.900Z,27.29
2018-06-21T10:22:24.906Z,27.28
2018-06-21T10:23:24.916Z,27.17
2018-06-21T10:24:24.939Z,26.99
2018-06-21T10:25:24.930Z,26.80
2018-06-21T10:26:24.938Z,26.96
2018-06-21T10:27:24.957Z,27.04
2018-06-21T10:28:24.952Z,27.24
2018-06-21T10:29:24.967Z,27.47
2018-06-21T10:30:24.966Z,27.85
2018-06-21T10:31:24.999Z,28.16
2018-06-21T10:32:24.981Z,28.16
2018-06-21T10:33:25.004Z,28.26
2018-06-21T10:34:25.000Z,28.22
2018-06-21T10:35:25.011Z,27.94
2018-06-21T10:36:25.031Z,27.79
2018-06-21T10:37:25.022Z,27.36
2018-06-21T10:38:25.042Z,26.95
2018-06-21T10:39:25.044Z,26.15
2018-06-21T10:40:25.048Z,25.65
2018-06-21T10:41:25.079Z,25.38
2018-06-21T10:42:25.078Z,25.24
2018-06-21T10:43:25.069Z,25.02
2018-06-21T10:44:25.090Z,24.75
2018-06-21T10:45:25.105Z,24.56
2018-06-21T10:46:25.118Z,24.56
2018-06-21T10:47:25.115Z,24.56
2018-06-21T10:48:25.105Z,24.52
2018-06-21T10:49:25.113Z,24.49
2018-06-21T10:50:25.120Z,24.49
2018-06-21T10:51:25.162Z,24.50
2018-06-21T10:52:25.147Z,24.59
2018-06-21T10:53:25.148Z,24.60
2018-06-21T10:54:25.155Z,24.54
2018-06-21T10:55:25.156Z,24.49
2018-06-21T10:56:25.162Z,24.47
2018-06-21T10:57:25.175Z,24.42
2018-06-21T10:58:25.193Z,24.35
2018-06-21T10:59:25.182Z,24.44
2018-06-21T11:00:25.192Z,24.45
2018-06-21T11:01:25.229Z,24.57
2018-06-21T11:02:25.232Z,24.67
2018-06-21T11:03:25.237Z,24.76
2018-06-21T11:04:25.238Z,24.79
2018-06-21T11:05:25.224Z,24.82
2018-06-21T11:06:25.225Z,24.80
2018-06-21T11:07:25.239Z,24.59
2018-06-21T11:08:25.270Z,24.56
2018-06-21T11:09:25.246Z,24.47
2018-06-21T11:10:25.261Z,24.42
2018-06-21T11:11:25.262Z,24.34
2018-06-21T11:12:25.285Z,24.26
2018-06-21T11:13:25.301Z,24.17
2018-06-21T11:14:25.284Z,24.14
2018-06-21T11:15:25.286Z,23.87
2018-06-21T11:16:25.296Z,23.79
2018-06-21T11:17:25.323Z,23.55
2018-06-21T11:18:25.303Z,23.23
2018-06-21T11:19:25.310Z,22.99
2018-06-21T11:20:25.336Z,22.68
2018-06-21T11:21:25.332Z,22.41
2018-06-21T11:22:25.329Z,21.82
2018-06-21T11:23:25.353Z,21.54
2018-06-21T11:24:25.346Z,20.98
2018-06-21T11:25:25.380Z,20.38
2018-06-21T11:26:25.358Z,20.09
2018-06-21T11:27:25.374Z,19.90
2018-06-21T11:28:25.370Z,19.86
2018-06-21T11:29:25.375Z,19.70
2018-06-21T11:30:25.382Z,19.72
2018-06-21T11:31:25.385Z,19.65
2018-06-21T11:32:25.388Z,19.55
2018-06-21T11:33:25.418Z,19.55
2018-06-21T11:34:25.425Z,19.61
2018-06-21T11:35:25.413Z,19.75
2018-06-21T11:36:25.434Z,19.84
2018-06-21T11:37:25.440Z,19.95
2018-06-21T11:38:25.452Z,20.00
2018-06-21T11:39:25.458Z,19.98
2018-06-21T11:40:25.463Z,19.93
2018-06-21T11:41:25.440Z,19.68
2018-06-21T11:42:25.442Z,19.69
2018-06-21T11:43:25.454Z,19.53
2018-06-21T11:44:25.460Z,19.18
2018-06-21T11:45:25.475Z,18.98
2018-06-21T11:46:25.465Z,18.61
2018-06-21T11:47:25.485Z,18.49
2018-06-21T11:48:25.479Z,18.43
2018-06-21T11:49:25.483Z,18.24
2018-06-21T11:50:25.489Z,18.10
2018-06-21T11:51:25.494Z,18.13
2018-06-21T11:52:25.501Z,18.15
2018-06-21T11:53:25.503Z,17.99
2018-06-21T11:54:25.531Z,17.97
2018-06-21T11:55:25.515Z,17.94
2018-06-21T11:56:25.518Z,17.89
2018-06-21T11:57:25.525Z,17.99
2018-06-21T11:58:25.551Z,17.94
2018-06-21T11:59:25.535Z,17.99
2018-06-21T12:00:25.540Z,17.99
2018-06-21T12:01:25.562Z,17.91
2018-06-21T12:02:25.546Z,18.02
2018-06-21T12:03:25.584Z,18.03
2018-06-21T12:04:25.577Z,17.94
2018-06-21T12:05:25.561Z,17.88
2018-06-21T12:06:25.567Z,17.84
2018-06-21T12:07:25.583Z,17.76
2018-06-21T12:08:25.580Z,17.78
2018-06-21T12:09:25.586Z,17.81
2018-06-21T12:10:25.609Z,17.81
2018-06-21T12:11:25.618Z,17.76
2018-06-21T12:12:25.617Z,17.74
2018-06-21T12:13:25.614Z,17.81
2018-06-21T12:14:25.627Z,17.79
2018-06-21T12:15:25.611Z,17.73
2018-06-21T12:16:25.618Z,17.70
2018-06-21T12:17:25.623Z,17.74
2018-06-21T12:18:25.651Z,17.71
2018-06-21T12:19:25.645Z,17.66
2018-06-21T12:20:25.626Z,17.66
2018-06-21T12:21:25.636Z,17.71
2018-06-21T12:22:25.636Z,17.74
2018-06-21T12:23:25.661Z,17.76
2018-06-21T12:24:25.690Z,17.74
2018-06-21T12:25:25.678Z,17.76
2018-06-21T12:26:25.739Z,17.74
2018-06-21T12:27:25.657Z,17.87
2018-06-21T12:28:25.675Z,17.88
2018-06-21T12:29:25.669Z,17.94
2018-06-21T12:30:25.670Z,18.07
2018-06-21T12:31:25.676Z,18.10
2018-06-21T12:32:25.680Z,18.18
2018-06-21T12:33:25.714Z,18.31
2018-06-21T12:34:25.694Z,18.29
2018-06-21T12:35:25.693Z,18.29
2018-06-21T12:36:25.715Z,18.31
2018-06-21T12:37:25.699Z,18.36
2018-06-21T12:38:25.704Z,18.33
2018-06-21T12:39:25.733Z,18.47
2018-06-21T12:40:25.713Z,18.57
2018-06-21T12:41:25.748Z,18.57
2018-06-21T12:42:25.724Z,18.58
2018-06-21T12:43:25.723Z,18.62
2018-06-21T12:44:25.801Z,18.74
2018-06-21T12:45:25.758Z,18.79
2018-06-21T12:46:25.739Z,18.92
2018-06-21T12:47:25.745Z,19.05
2018-06-21T12:48:25.791Z,19.11
2018-06-21T12:49:25.767Z,19.31
2018-06-21T12:50:25.758Z,19.51
2018-06-21T12:51:25.766Z,19.75
2018-06-21T12:52:25.787Z,20.00